createdAt,value
2023-01-18T00:01:07.179Z,94007.00
2023-01-18T00:03:35.628Z,93999.00
2023-01-18T00:06:08.987Z,94007.00
2023-01-18T00:08:38.569Z,94011.00
2023-01-18T00:11:11.667Z,94013.00
2023-01-18T00:13:39.399Z,94014.00
2023-01-18T00:16:10.610Z,94019.00
2023-01-18T00:18:37.421Z,94022.00
2023-01-18T00:21:07.650Z,94011.00
2023-01-18T00:23:34.676Z,94021.00
2023-01-18T00:26:10.611Z,94023.00
2023-01-18T00:28:38.990Z,94015.00
2023-01-18T00:31:15.148Z,94023.00
2023-01-18T00:33:47.726Z,94027.00
2023-01-18T00:36:15.803Z,94019.00
2023-01-18T00:38:42.833Z,94019.00
2023-01-18T00:41:10.115Z,94026.00
2023-01-18T00:43:39.590Z,94023.00
2023-01-18T00:46:24.673Z,94022.00
2023-01-18T00:48:53.106Z,94025.00
2023-01-18T00:51:22.697Z,94013.00
2023-01-18T00:53:49.783Z,94025.00
2023-01-18T00:56:21.605Z,94032.00
2023-01-18T00:58:48.767Z,94033.00
2023-01-18T01:01:16.088Z,94032.00
2023-01-18T01:04:01.371Z,94040.00
2023-01-18T01:06:46.780Z,94047.00
2023-01-18T01:09:26.355Z,94047.00
2023-01-18T01:12:13.056Z,94056.00
2023-01-18T01:15:03.119Z,94053.00
2023-01-18T01:17:50.280Z,94065.00
2023-01-18T01:20:36.059Z,94059.00
2023-01-18T01:23:28.346Z,94056.00
2023-01-18T01:26:07.809Z,94070.00
2023-01-18T01:28:49.361Z,94066.00
2023-01-18T01:31:17.709Z,94069.00
2023-01-18T01:33:45.677Z,94079.00
2023-01-18T01:36:19.229Z,94079.00
2023-01-18T01:38:46.794Z,94076.00
2023-01-18T01:41:26.683Z,94085.00
2023-01-18T01:43:59.359Z,94084.00
2023-01-18T01:46:37.946Z,94085.00
2023-01-18T01:49:18.765Z,94097.00
2023-01-18T01:51:52.491Z,94093.00
2023-01-18T01:54:33.978Z,94092.00
2023-01-18T01:57:06.090Z,94099.00
2023-01-18T01:59:35.455Z,94111.00
2023-01-18T02:02:03.709Z,94114.00
2023-01-18T02:04:31.047Z,94111.00
2023-01-18T02:06:57.802Z,94110.00
2023-01-18T02:09:24.829Z,94116.00
2023-01-18T02:11:55.612Z,94114.00
2023-01-18T02:14:26.757Z,94119.00
2023-01-18T02:17:17.769Z,94120.00
2023-01-18T02:20:26.778Z,94120.00
2023-01-18T02:23:25.481Z,94121.00
2023-01-18T02:26:35.805Z,94126.00
2023-01-18T02:29:18.117Z,94127.00
2023-01-18T02:32:15.227Z,94133.00
2023-01-18T02:35:11.515Z,94129.00
2023-01-18T02:38:25.027Z,94146.00
2023-01-18T02:41:46.561Z,94137.00
2023-01-18T02:44:36.212Z,94138.00
2023-01-18T02:47:04.588Z,94144.00
2023-01-18T02:49:32.256Z,94152.00
2023-01-18T02:52:07.642Z,94176.00
2023-01-18T02:54:39.060Z,94163.00
2023-01-18T02:57:11.461Z,94173.00
2023-01-18T02:59:48.875Z,94173.00
2023-01-18T03:02:19.440Z,94181.00
2023-01-18T03:04:56.643Z,94177.00
2023-01-18T03:07:42.868Z,94179.00
2023-01-18T03:10:12.200Z,94185.00
2023-01-18T03:13:00.649Z,94186.00
2023-01-18T03:15:45.370Z,94197.00
2023-01-18T03:19:00.300Z,94195.00
2023-01-18T03:21:43.386Z,94202.00
2023-01-18T03:24:10.922Z,94207.00
2023-01-18T03:26:47.072Z,94211.00
2023-01-18T03:29:34.981Z,94221.00
2023-01-18T03:32:31.091Z,94214.00
2023-01-18T03:35:03.291Z,94220.00
2023-01-18T03:37:42.164Z,94218.00
2023-01-18T03:40:21.174Z,94229.00
2023-01-18T03:43:11.314Z,94229.00
2023-01-18T03:45:49.395Z,94230.00
2023-01-18T03:48:16.851Z,94242.00
2023-01-18T03:51:00.332Z,94243.00
2023-01-18T03:53:39.043Z,94243.00
2023-01-18T03:56:16.199Z,94250.00
2023-01-18T03:58:45.683Z,94249.00
2023-01-18T04:01:12.765Z,94254.00
2023-01-18T04:03:39.646Z,94255.00
2023-01-18T04:06:07.502Z,94259.00
2023-01-18T04:08:34.337Z,94261.00
2023-01-18T04:11:01.134Z,94268.00
2023-01-18T04:13:27.932Z,94273.00
2023-01-18T04:15:54.863Z,94278.00
2023-01-18T04:18:21.715Z,94279.00
2023-01-18T04:20:49.091Z,94282.00
2023-01-18T04:23:15.931Z,94285.00
2023-01-18T04:25:45.730Z,94287.00
2023-01-18T04:28:12.520Z,94296.00
2023-01-18T04:30:39.884Z,94302.00
2023-01-18T04:33:06.661Z,94297.00
2023-01-18T04:35:33.652Z,94303.00
2023-01-18T04:38:00.394Z,94303.00
2023-01-18T04:40:27.176Z,94307.00
2023-01-18T04:42:54.604Z,94294.00
2023-01-18T04:45:21.616Z,94311.00
2023-01-18T04:47:48.421Z,94309.00
2023-01-18T04:50:15.365Z,94312.00
2023-01-18T04:52:42.159Z,94321.00
2023-01-18T04:55:11.573Z,94332.00
2023-01-18T04:57:38.429Z,94339.00
2023-01-18T05:00:08.596Z,94334.00
2023-01-18T05:02:35.623Z,94348.00
2023-01-18T05:05:04.996Z,94343.00
2023-01-18T05:07:33.887Z,94345.00
2023-01-18T05:10:01.345Z,94354.00
2023-01-18T05:12:29.595Z,94365.00
2023-01-18T05:14:56.404Z,94364.00
2023-01-18T05:17:27.535Z,94361.00
2023-01-18T05:19:55.015Z,94373.00
2023-01-18T05:22:22.912Z,94381.00
2023-01-18T05:24:49.940Z,94385.00
2023-01-18T05:27:17.012Z,94389.00
2023-01-18T05:29:44.105Z,94392.00
2023-01-18T05:32:11.332Z,94398.00
2023-01-18T05:34:38.196Z,94395.00
2023-01-18T05:37:05.001Z,94407.00
2023-01-18T05:39:31.852Z,94403.00
2023-01-18T05:42:00.183Z,94403.00
2023-01-18T05:44:27.095Z,94412.00
2023-01-18T05:46:54.048Z,94422.00
2023-01-18T05:49:20.865Z,94428.00
2023-01-18T05:51:47.685Z,94428.00
2023-01-18T05:54:14.491Z,94427.00
2023-01-18T05:56:42.051Z,94442.00
2023-01-18T05:59:09.012Z,94441.00
2023-01-18T06:01:35.894Z,94451.00
2023-01-18T06:04:02.737Z,94448.00
2023-01-18T06:06:30.598Z,94453.00
2023-01-18T06:08:57.408Z,94467.00
2023-01-18T06:11:24.178Z,94467.00
2023-01-18T06:13:52.251Z,94458.00
2023-01-18T06:16:19.136Z,94472.00
2023-01-18T06:18:45.933Z,94480.00
2023-01-18T06:21:12.741Z,94491.00
2023-01-18T06:23:39.534Z,94489.00
2023-01-18T06:26:06.282Z,94494.00
2023-01-18T06:28:33.062Z,94511.00
2023-01-18T06:31:00.448Z,94511.00
2023-01-18T06:33:27.283Z,94509.00
2023-01-18T06:35:54.069Z,94514.00
2023-01-18T06:38:20.889Z,94520.00
2023-01-18T06:40:47.705Z,94529.00
2023-01-18T06:43:15.901Z,94532.00
2023-01-18T06:45:42.727Z,94537.00
2023-01-18T06:48:09.524Z,94544.00
2023-01-18T06:50:36.316Z,94550.00
2023-01-18T06:53:03.180Z,94553.00
2023-01-18T06:55:29.998Z,94564.00
2023-01-18T06:57:57.049Z,94568.00
2023-01-18T07:00:23.991Z,94567.00
2023-01-18T07:02:52.980Z,94583.00
2023-01-18T07:05:20.045Z,94577.00
2023-01-18T07:07:46.836Z,94590.00
2023-01-18T07:10:16.260Z,94595.00
2023-01-18T07:12:46.207Z,94593.00
2023-01-18T07:15:21.471Z,94603.00
2023-01-18T07:17:50.365Z,94597.00
2023-01-18T07:20:18.028Z,94605.00
2023-01-18T07:22:44.834Z,94606.00
2023-01-18T07:25:18.186Z,94610.00
2023-01-18T07:27:46.130Z,94619.00
2023-01-18T07:30:13.473Z,94617.00
2023-01-18T07:32:44.684Z,94626.00
2023-01-18T07:35:11.602Z,94645.00
2023-01-18T07:37:38.642Z,94648.00
2023-01-18T07:40:06.415Z,94650.00
2023-01-18T07:42:33.188Z,94660.00
2023-01-18T07:44:59.968Z,94664.00
2023-01-18T07:47:26.922Z,94666.00
2023-01-18T07:49:53.893Z,94665.00
2023-01-18T07:52:20.700Z,94682.00
2023-01-18T07:54:47.495Z,94691.00
2023-01-18T07:57:14.257Z,94696.00
2023-01-18T07:59:41.040Z,94696.00
2023-01-18T08:02:12.411Z,94694.00
2023-01-18T08:04:39.598Z,94713.00
2023-01-18T08:07:06.490Z,94709.00
2023-01-18T08:09:34.039Z,94709.00
2023-01-18T08:12:01.511Z,94718.00
2023-01-18T08:14:28.467Z,94714.00
2023-01-18T08:16:55.293Z,94726.00
2023-01-18T08:19:22.087Z,94728.00
2023-01-18T08:21:48.866Z,94727.00
2023-01-18T08:24:15.642Z,94729.00
2023-01-18T08:26:42.383Z,94736.00
2023-01-18T08:29:09.178Z,94746.00
2023-01-18T08:31:35.985Z,94750.00
2023-01-18T08:34:02.795Z,94749.00
2023-01-18T08:36:31.684Z,94764.00
2023-01-18T08:38:58.634Z,94763.00
2023-01-18T08:41:30.516Z,94769.00
2023-01-18T08:43:58.869Z,94773.00
2023-01-18T08:46:26.580Z,94764.00
2023-01-18T08:48:59.308Z,94778.00
2023-01-18T08:51:26.240Z,94780.00
2023-01-18T08:53:54.422Z,94793.00
2023-01-18T08:56:21.319Z,94802.00
2023-01-18T08:58:48.340Z,94801.00
2023-01-18T09:01:15.243Z,94795.00
2023-01-18T09:03:42.462Z,94817.00
2023-01-18T09:06:12.489Z,94805.00
2023-01-18T09:08:39.743Z,94815.00
2023-01-18T09:11:10.270Z,94822.00
2023-01-18T09:13:47.812Z,94825.00
2023-01-18T09:16:25.740Z,94829.00
2023-01-18T09:18:52.910Z,94839.00
2023-01-18T09:21:20.845Z,94850.00
2023-01-18T09:23:49.321Z,94859.00
2023-01-18T09:26:17.108Z,94851.00
2023-01-18T09:28:47.555Z,94857.00
2023-01-18T09:31:14.476Z,94865.00
2023-01-18T09:33:51.239Z,94871.00
2023-01-18T09:36:21.554Z,94879.00
2023-01-18T09:38:48.457Z,94880.00
2023-01-18T09:41:46.849Z,94897.00
2023-01-18T09:44:34.377Z,94894.00
2023-01-18T09:47:34.394Z,94892.00
2023-01-18T09:50:14.752Z,94891.00
2023-01-18T09:53:07.470Z,94888.00
2023-01-18T09:55:57.024Z,94904.00
2023-01-18T09:59:00.770Z,94906.00
2023-01-18T10:01:33.217Z,94907.00
2023-01-18T10:04:19.095Z,94916.00
2023-01-18T10:06:57.010Z,94911.00
2023-01-18T10:09:30.430Z,94916.00
2023-01-18T10:12:20.148Z,94922.00
2023-01-18T10:15:09.260Z,94926.00
2023-01-18T10:17:43.003Z,94925.00
2023-01-18T10:20:28.221Z,94923.00
2023-01-18T10:23:02.900Z,94929.00
2023-01-18T10:25:35.907Z,94932.00
2023-01-18T10:28:45.180Z,94945.00
2023-01-18T10:31:50.778Z,94950.00
2023-01-18T10:34:31.515Z,94953.00
2023-01-18T10:37:14.305Z,94951.00
2023-01-18T10:39:47.981Z,94962.00
2023-01-18T10:42:29.529Z,94955.00
2023-01-18T10:44:57.139Z,94950.00
2023-01-18T10:47:23.919Z,94953.00
2023-01-18T10:49:58.202Z,94957.00
2023-01-18T10:52:32.391Z,94960.00
2023-01-18T10:55:07.627Z,94967.00
2023-01-18T10:57:46.316Z,94970.00
2023-01-18T11:00:34.696Z,94973.00
2023-01-18T11:03:03.968Z,94972.00
2023-01-18T11:05:40.190Z,94975.00
2023-01-18T11:08:33.448Z,94981.00
2023-01-18T11:11:07.331Z,94980.00
2023-01-18T11:13:41.435Z,94978.00
2023-01-18T11:16:20.656Z,94979.00
2023-01-18T11:19:05.945Z,94979.00
2023-01-18T11:21:47.070Z,94982.00
2023-01-18T11:24:28.289Z,94989.00
2023-01-18T11:27:02.902Z,94988.00
2023-01-18T11:29:34.807Z,94990.00
2023-01-18T11:32:07.252Z,94986.00
2023-01-18T11:34:43.734Z,94997.00
2023-01-18T11:37:34.324Z,94999.00
2023-01-18T11:40:19.535Z,95001.00
2023-01-18T11:42:48.895Z,95008.00
2023-01-18T11:45:28.783Z,95006.00
2023-01-18T11:48:13.087Z,95018.00
2023-01-18T11:50:54.038Z,95011.00
2023-01-18T11:54:02.806Z,95008.00
2023-01-18T11:56:47.850Z,95018.00
2023-01-18T11:59:30.431Z,95029.00
2023-01-18T12:02:46.454Z,95028.00
2023-01-18T12:05:28.651Z,95033.00
2023-01-18T12:08:26.887Z,95029.00
2023-01-18T12:11:17.740Z,95046.00
2023-01-18T12:14:20.706Z,95042.00
2023-01-18T12:17:24.863Z,95030.00
2023-01-18T12:19:59.979Z,95038.00
2023-01-18T12:23:09.270Z,95043.00
2023-01-18T12:26:13.068Z,95045.00
2023-01-18T12:29:36.815Z,95049.00
2023-01-18T12:32:36.828Z,95057.00
2023-01-18T12:35:23.987Z,95059.00
2023-01-18T12:38:13.494Z,95057.00
2023-01-18T12:40:52.102Z,95060.00
2023-01-18T12:43:18.733Z,95068.00
2023-01-18T12:46:08.948Z,95062.00
2023-01-18T12:48:55.530Z,95066.00
2023-01-18T12:51:26.913Z,95072.00
2023-01-18T12:54:10.815Z,95074.00
2023-01-18T12:56:46.172Z,95071.00
2023-01-18T12:59:20.281Z,95081.00
2023-01-18T13:02:22.322Z,95071.00
2023-01-18T13:05:34.999Z,95081.00
2023-01-18T13:08:09.990Z,95080.00
2023-01-18T13:10:37.664Z,95087.00
2023-01-18T13:13:06.562Z,95092.00
2023-01-18T13:15:53.278Z,95104.00
2023-01-18T13:18:45.411Z,95102.00
2023-01-18T13:21:33.114Z,95102.00
2023-01-18T13:24:36.455Z,95107.00
2023-01-18T13:27:12.021Z,95107.00
2023-01-18T13:29:40.611Z,95105.00
2023-01-18T13:32:31.041Z,95106.00
2023-01-18T13:35:20.102Z,95112.00
2023-01-18T13:38:09.795Z,95124.00
2023-01-18T13:40:51.810Z,95128.00
2023-01-18T13:43:35.388Z,95131.00
2023-01-18T13:46:07.070Z,95131.00
2023-01-18T13:48:45.609Z,95143.00
2023-01-18T13:51:40.075Z,95154.00
2023-01-18T13:54:15.746Z,95145.00
2023-01-18T13:57:05.418Z,95153.00
2023-01-18T13:59:48.125Z,95157.00
2023-01-18T14:02:42.347Z,95161.00
2023-01-18T14:05:36.254Z,95174.00
2023-01-18T14:08:05.202Z,95170.00
2023-01-18T14:10:38.099Z,95188.00
2023-01-18T14:13:15.333Z,95185.00
2023-01-18T14:15:42.152Z,95190.00
2023-01-18T14:18:29.040Z,95189.00
2023-01-18T14:21:14.150Z,95193.00
2023-01-18T14:24:15.848Z,95214.00
2023-01-18T14:26:44.179Z,95214.00
2023-01-18T14:29:36.811Z,95209.00
2023-01-18T14:32:07.465Z,95219.00
2023-01-18T14:34:41.984Z,95226.00
2023-01-18T14:37:28.530Z,95235.00
2023-01-18T14:40:14.254Z,95230.00
2023-01-18T14:43:01.083Z,95242.00
2023-01-18T14:45:30.256Z,95241.00
2023-01-18T14:48:02.803Z,95244.00
2023-01-18T14:50:37.780Z,95243.00
2023-01-18T14:53:06.885Z,95246.00
2023-01-18T14:55:35.443Z,95245.00
2023-01-18T14:58:18.015Z,95256.00
2023-01-18T15:00:53.655Z,95256.00
2023-01-18T15:03:28.675Z,95271.00
2023-01-18T15:06:18.837Z,95272.00
2023-01-18T15:08:47.244Z,95275.00
2023-01-18T15:11:14.251Z,95278.00
2023-01-18T15:13:52.249Z,95291.00
2023-01-18T15:16:23.223Z,95293.00
2023-01-18T15:18:52.204Z,95293.00
2023-01-18T15:21:24.841Z,95298.00
2023-01-18T15:24:07.434Z,95301.00
2023-01-18T15:26:45.609Z,95307.00
2023-01-18T15:29:25.050Z,95308.00
2023-01-18T15:32:14.093Z,95310.00
2023-01-18T15:34:47.498Z,95319.00
2023-01-18T15:37:31.094Z,95319.00
2023-01-18T15:39:59.684Z,95315.00
2023-01-18T15:42:48.160Z,95323.00
2023-01-18T15:45:27.168Z,95331.00
2023-01-18T15:47:56.526Z,95333.00
2023-01-18T15:50:35.495Z,95329.00
2023-01-18T15:53:06.015Z,95338.00
2023-01-18T15:55:40.682Z,95341.00
2023-01-18T15:58:25.136Z,95349.00
2023-01-18T16:01:01.380Z,95349.00
2023-01-18T16:03:34.738Z,95356.00
2023-01-18T16:06:07.719Z,95353.00
2023-01-18T16:08:35.272Z,95357.00
2023-01-18T16:11:02.159Z,95354.00
2023-01-18T16:13:36.477Z,95358.00
2023-01-18T16:16:14.393Z,95366.00
2023-01-18T16:18:49.416Z,95371.00
2023-01-18T16:22:03.498Z,95380.00
2023-01-18T16:24:49.631Z,95396.00
2023-01-18T16:27:20.037Z,95397.00
2023-01-18T16:29:54.921Z,95395.00
2023-01-18T16:32:24.772Z,95401.00
2023-01-18T16:34:53.279Z,95407.00
2023-01-18T16:37:20.648Z,95408.00
2023-01-18T16:39:47.806Z,95418.00
2023-01-18T16:42:14.590Z,95419.00
2023-01-18T16:44:44.410Z,95425.00
2023-01-18T16:47:13.169Z,95430.00
2023-01-18T16:49:41.100Z,95435.00
2023-01-18T16:52:12.606Z,95435.00
2023-01-18T16:54:44.706Z,95439.00
2023-01-18T16:57:21.591Z,95441.00
2023-01-18T16:59:48.851Z,95447.00
2023-01-18T17:02:15.964Z,95451.00
2023-01-18T17:04:44.767Z,95451.00
2023-01-18T17:07:11.647Z,95451.00
2023-01-18T17:09:47.840Z,95458.00
2023-01-18T17:12:15.392Z,95474.00
2023-01-18T17:14:42.287Z,95482.00
2023-01-18T17:17:10.341Z,95474.00
2023-01-18T17:19:37.998Z,95487.00
2023-01-18T17:22:04.973Z,95490.00
2023-01-18T17:24:31.835Z,95492.00
2023-01-18T17:26:58.619Z,95493.00
2023-01-18T17:29:25.425Z,95504.00
2023-01-18T17:31:52.966Z,95510.00
2023-01-18T17:34:28.257Z,95518.00
2023-01-18T17:36:58.457Z,95519.00
2023-01-18T17:39:36.960Z,95524.00
2023-01-18T17:42:18.747Z,95525.00
2023-01-18T17:44:50.282Z,95533.00
2023-01-18T17:47:17.358Z,95537.00
2023-01-18T17:49:44.263Z,95539.00
2023-01-18T17:52:11.223Z,95548.00
2023-01-18T17:54:37.996Z,95553.00
2023-01-18T17:57:05.361Z,95557.00
2023-01-18T17:59:32.134Z,95564.00
2023-01-18T18:01:58.929Z,95559.00
2023-01-18T18:04:25.763Z,95560.00
2023-01-18T18:06:58.619Z,95568.00
2023-01-18T18:09:25.807Z,95572.00
2023-01-18T18:11:52.983Z,95574.00
2023-01-18T18:14:19.851Z,95584.00
2023-01-18T18:16:46.710Z,95582.00
2023-01-18T18:19:14.668Z,95588.00
2023-01-18T18:21:43.031Z,95584.00
2023-01-18T18:24:10.037Z,95595.00
2023-01-18T18:26:36.984Z,95596.00
2023-01-18T18:29:04.262Z,95615.00
2023-01-18T18:31:31.080Z,95609.00
2023-01-18T18:33:58.105Z,95618.00
2023-01-18T18:36:27.102Z,95618.00
2023-01-18T18:38:53.976Z,95630.00
2023-01-18T18:41:20.906Z,95626.00
2023-01-18T18:43:47.720Z,95638.00
2023-01-18T18:46:14.871Z,95640.00
2023-01-18T18:48:42.530Z,95644.00
2023-01-18T18:51:09.832Z,95653.00
2023-01-18T18:53:39.879Z,95653.00
2023-01-18T18:56:10.098Z,95654.00
2023-01-18T18:58:38.839Z,95662.00
2023-01-18T19:01:07.306Z,95665.00
2023-01-18T19:03:35.113Z,95672.00
2023-01-18T19:06:02.035Z,95678.00
2023-01-18T19:08:30.931Z,95686.00
2023-01-18T19:10:57.884Z,95698.00
2023-01-18T19:13:24.682Z,95688.00
2023-01-18T19:15:51.779Z,95707.00
2023-01-18T19:18:18.686Z,95714.00
2023-01-18T19:20:45.466Z,95708.00
2023-01-18T19:23:12.293Z,95696.00
2023-01-18T19:25:40.543Z,95707.00
2023-01-18T19:28:08.001Z,95706.00
2023-01-18T19:30:35.080Z,95715.00
2023-01-18T19:33:03.217Z,95719.00
2023-01-18T19:35:31.167Z,95717.00
2023-01-18T19:38:00.786Z,95714.00
2023-01-18T19:40:27.547Z,95721.00
2023-01-18T19:42:54.561Z,95720.00
2023-01-18T19:45:28.190Z,95721.00
2023-01-18T19:47:57.885Z,95728.00
2023-01-18T19:50:26.154Z,95724.00
2023-01-18T19:52:53.129Z,95735.00
2023-01-18T19:55:21.645Z,95740.00
2023-01-18T19:57:49.411Z,95741.00
2023-01-18T20:00:16.729Z,95742.00
2023-01-18T20:02:43.822Z,95742.00
2023-01-18T20:05:10.888Z,95740.00
2023-01-18T20:07:39.500Z,95755.00
2023-01-18T20:10:07.594Z,95755.00
2023-01-18T20:12:34.550Z,95755.00
2023-01-18T20:15:01.364Z,95753.00
2023-01-18T20:17:28.130Z,95756.00
2023-01-18T20:19:54.992Z,95763.00
2023-01-18T20:22:22.870Z,95763.00
2023-01-18T20:24:49.995Z,95763.00
2023-01-18T20:27:17.185Z,95763.00
2023-01-18T20:29:44.764Z,95761.00
2023-01-18T20:32:17.120Z,95765.00
2023-01-18T20:34:47.169Z,95761.00
2023-01-18T20:37:15.275Z,95770.00
2023-01-18T20:39:42.424Z,95771.00
2023-01-18T20:42:09.212Z,95771.00
2023-01-18T20:44:36.145Z,95765.00
2023-01-18T20:47:03.753Z,95772.00
2023-01-18T20:49:37.564Z,95783.00
2023-01-18T20:52:06.616Z,95783.00
2023-01-18T20:54:35.765Z,95788.00
2023-01-18T20:57:04.434Z,95790.00
2023-01-18T20:59:31.266Z,95793.00
2023-01-18T21:01:58.145Z,95802.00
2023-01-18T21:04:25.315Z,95796.00
2023-01-18T21:06:52.164Z,95805.00
2023-01-18T21:09:18.984Z,95802.00
2023-01-18T21:11:45.810Z,95807.00
2023-01-18T21:14:12.741Z,95812.00
2023-01-18T21:16:39.646Z,95802.00
2023-01-18T21:19:06.564Z,95811.00
2023-01-18T21:21:33.320Z,95813.00
2023-01-18T21:24:00.214Z,95827.00
2023-01-18T21:26:27.364Z,95826.00
2023-01-18T21:28:54.723Z,95838.00
2023-01-18T21:31:21.903Z,95840.00
2023-01-18T21:33:49.297Z,95837.00
2023-01-18T21:36:18.307Z,95837.00
2023-01-18T21:38:46.038Z,95837.00
2023-01-18T21:41:31.160Z,95835.00
2023-01-18T21:44:16.546Z,95825.00
2023-01-18T21:46:51.954Z,95835.00
2023-01-18T21:52:43.824Z,95843.00
2023-01-18T21:55:10.924Z,95856.00
2023-01-18T21:57:38.624Z,95853.00
2023-01-18T22:00:06.554Z,95859.00
2023-01-18T22:02:34.214Z,95860.00
2023-01-18T22:05:01.953Z,95848.00
2023-01-18T22:07:31.434Z,95847.00
2023-01-18T22:10:04.964Z,95855.00
2023-01-18T22:12:34.725Z,95863.00
2023-01-18T22:15:02.265Z,95863.00
2023-01-18T22:17:29.247Z,95863.00
2023-01-18T22:19:56.114Z,95872.00
2023-01-18T22:22:22.899Z,95872.00
2023-01-18T22:24:49.684Z,95883.00
2023-01-18T22:27:16.467Z,95888.00
2023-01-18T22:29:43.270Z,95889.00
2023-01-18T22:32:10.042Z,95887.00
2023-01-18T22:34:36.865Z,95887.00
2023-01-18T22:37:03.881Z,95893.00
2023-01-18T22:39:30.679Z,95896.00
2023-01-18T22:41:57.534Z,95897.00
2023-01-18T22:44:24.347Z,95897.00
2023-01-18T22:46:51.194Z,95893.00
2023-01-18T22:49:18.115Z,95891.00
2023-01-18T22:51:44.917Z,95900.00
2023-01-18T22:54:11.790Z,95899.00
2023-01-18T22:56:38.567Z,95896.00
2023-01-18T22:59:05.338Z,95903.00
2023-01-18T23:01:33.589Z,95900.00
2023-01-18T23:04:04.040Z,95905.00
2023-01-18T23:06:47.975Z,95897.00
2023-01-18T23:09:17.434Z,95898.00
2023-01-18T23:11:45.398Z,95910.00
2023-01-18T23:14:31.042Z,95900.00
2023-01-18T23:17:16.165Z,95901.00
2023-01-18T23:19:42.909Z,95914.00
2023-01-18T23:22:10.535Z,95904.00
2023-01-18T23:24:38.289Z,95916.00
2023-01-18T23:27:07.580Z,95910.00
2023-01-18T23:29:34.530Z,95916.00
2023-01-18T23:32:01.653Z,95913.00
2023-01-18T23:34:28.456Z,95917.00
2023-01-18T23:36:55.308Z,95918.00
2023-01-18T23:39:40.426Z,95926.00
2023-01-18T23:42:25.753Z,95916.00
2023-01-18T23:45:10.852Z,95930.00
2023-01-18T23:47:56.238Z,95927.00
2023-01-18T23:50:41.714Z,95927.00
2023-01-18T23:53:31.518Z,95921.00
2023-01-18T23:55:58.949Z,95928.00
2023-01-18T23:58:26.117Z,95919.00
